sensor_id;sensor_type;location;lat;lon;timestamp;P1;durP1;ratioP1;P2;durP2;ratioP2
25511;SDS011;13414;44.534;18.700;2024-02-16T00:01:59;179.77;;;94.53;;
25511;SDS011;13414;44.534;18.700;2024-02-16T00:04:29;179.02;;;96.03;;
25511;SDS011;13414;44.534;18.700;2024-02-16T00:06:57;152.68;;;85.18;;
25511;SDS011;13414;44.534;18.700;2024-02-16T00:09:24;156.25;;;82.35;;
25511;SDS011;13414;44.534;18.700;2024-02-16T00:11:52;140.32;;;77.60;;
25511;SDS011;13414;44.534;18.700;2024-02-16T00:16:53;137.85;;;78.68;;
25511;SDS011;13414;44.534;18.700;2024-02-16T00:19:20;127.93;;;70.43;;
25511;SDS011;13414;44.534;18.700;2024-02-16T00:21:50;147.13;;;77.15;;
25511;SDS011;13414;44.534;18.700;2024-02-16T00:24:18;126.85;;;71.97;;
25511;SDS011;13414;44.534;18.700;2024-02-16T00:26:46;134.82;;;76.43;;
25511;SDS011;13414;44.534;18.700;2024-02-16T00:29:15;130.55;;;74.22;;
25511;SDS011;13414;44.534;18.700;2024-02-16T00:31:42;125.95;;;72.03;;
25511;SDS011;13414;44.534;18.700;2024-02-16T00:34:10;143.88;;;78.32;;
25511;SDS011;13414;44.534;18.700;2024-02-16T00:36:38;151.77;;;84.47;;
25511;SDS011;13414;44.534;18.700;2024-02-16T00:39:07;137.63;;;78.90;;
25511;SDS011;13414;44.534;18.700;2024-02-16T00:41:34;128.10;;;72.63;;
25511;SDS011;13414;44.534;18.700;2024-02-16T00:44:04;115.53;;;64.82;;
25511;SDS011;13414;44.534;18.700;2024-02-16T00:46:31;108.18;;;61.45;;
25511;SDS011;13414;44.534;18.700;2024-02-16T00:48:59;107.60;;;59.60;;
25511;SDS011;13414;44.534;18.700;2024-02-16T00:51:27;108.28;;;61.70;;
25511;SDS011;13414;44.534;18.700;2024-02-16T00:53:55;120.53;;;65.20;;
25511;SDS011;13414;44.534;18.700;2024-02-16T00:56:24;110.93;;;60.65;;
25511;SDS011;13414;44.534;18.700;2024-02-16T00:58:51;118.00;;;62.00;;
25511;SDS011;13414;44.534;18.700;2024-02-16T01:01:19;110.03;;;60.25;;
25511;SDS011;13414;44.534;18.700;2024-02-16T01:03:48;105.53;;;58.97;;
25511;SDS011;13414;44.534;18.700;2024-02-16T01:06:17;99.93;;;56.58;;
25511;SDS011;13414;44.534;18.700;2024-02-16T01:08:45;102.07;;;56.88;;
25511;SDS011;13414;44.534;18.700;2024-02-16T01:11:13;100.55;;;51.88;;
25511;SDS011;13414;44.534;18.700;2024-02-16T01:13:42;94.03;;;52.55;;
25511;SDS011;13414;44.534;18.700;2024-02-16T01:16:09;84.47;;;49.28;;
25511;SDS011;13414;44.534;18.700;2024-02-16T01:18:37;96.97;;;52.20;;
25511;SDS011;13414;44.534;18.700;2024-02-16T01:21:05;97.35;;;52.40;;
25511;SDS011;13414;44.534;18.700;2024-02-16T01:23:34;97.72;;;54.55;;
25511;SDS011;13414;44.534;18.700;2024-02-16T01:26:02;92.63;;;51.67;;
25511;SDS011;13414;44.534;18.700;2024-02-16T01:28:30;92.40;;;51.50;;
25511;SDS011;13414;44.534;18.700;2024-02-16T01:31:00;103.03;;;55.83;;
25511;SDS011;13414;44.534;18.700;2024-02-16T01:33:28;109.90;;;59.00;;
25511;SDS011;13414;44.534;18.700;2024-02-16T01:35:56;101.47;;;54.38;;
25511;SDS011;13414;44.534;18.700;2024-02-16T01:38:23;91.03;;;51.60;;
25511;SDS011;13414;44.534;18.700;2024-02-16T01:40:51;95.72;;;52.90;;
25511;SDS011;13414;44.534;18.700;2024-02-16T01:43:18;105.75;;;55.35;;
25511;SDS011;13414;44.534;18.700;2024-02-16T01:45:46;92.70;;;50.97;;
25511;SDS011;13414;44.534;18.700;2024-02-16T01:48:15;104.35;;;57.60;;
25511;SDS011;13414;44.534;18.700;2024-02-16T01:50:44;100.45;;;54.15;;
25511;SDS011;13414;44.534;18.700;2024-02-16T01:53:12;94.43;;;52.60;;
25511;SDS011;13414;44.534;18.700;2024-02-16T01:55:44;97.82;;;51.80;;
25511;SDS011;13414;44.534;18.700;2024-02-16T01:58:11;95.68;;;51.97;;
25511;SDS011;13414;44.534;18.700;2024-02-16T02:00:39;101.00;;;53.00;;
25511;SDS011;13414;44.534;18.700;2024-02-16T02:03:07;96.05;;;55.42;;
25511;SDS011;13414;44.534;18.700;2024-02-16T02:05:42;91.63;;;51.63;;
25511;SDS011;13414;44.534;18.700;2024-02-16T02:08:12;94.90;;;52.72;;
25511;SDS011;13414;44.534;18.700;2024-02-16T02:10:40;90.20;;;50.20;;
25511;SDS011;13414;44.534;18.700;2024-02-16T02:13:09;89.95;;;48.90;;
25511;SDS011;13414;44.534;18.700;2024-02-16T02:15:37;87.22;;;49.20;;
25511;SDS011;13414;44.534;18.700;2024-02-16T02:18:05;83.97;;;46.97;;
25511;SDS011;13414;44.534;18.700;2024-02-16T02:20:32;88.13;;;47.10;;
25511;SDS011;13414;44.534;18.700;2024-02-16T02:23:01;84.47;;;45.95;;
25511;SDS011;13414;44.534;18.700;2024-02-16T02:25:29;89.60;;;49.28;;
25511;SDS011;13414;44.534;18.700;2024-02-16T02:27:57;83.97;;;49.92;;
25511;SDS011;13414;44.534;18.700;2024-02-16T02:30:25;96.40;;;54.00;;
25511;SDS011;13414;44.534;18.700;2024-02-16T02:32:53;90.15;;;53.75;;
25511;SDS011;13414;44.534;18.700;2024-02-16T02:35:21;94.82;;;54.83;;
25511;SDS011;13414;44.534;18.700;2024-02-16T02:37:48;84.28;;;49.67;;
25511;SDS011;13414;44.534;18.700;2024-02-16T02:40:18;85.53;;;48.53;;
25511;SDS011;13414;44.534;18.700;2024-02-16T02:42:45;87.85;;;50.38;;
25511;SDS011;13414;44.534;18.700;2024-02-16T02:45:13;89.72;;;49.67;;
25511;SDS011;13414;44.534;18.700;2024-02-16T02:47:41;80.47;;;46.05;;
25511;SDS011;13414;44.534;18.700;2024-02-16T02:50:09;78.85;;;47.20;;
25511;SDS011;13414;44.534;18.700;2024-02-16T02:52:37;86.13;;;48.40;;
25511;SDS011;13414;44.534;18.700;2024-02-16T02:55:04;72.35;;;42.83;;
25511;SDS011;13414;44.534;18.700;2024-02-16T02:57:37;75.03;;;41.42;;
25511;SDS011;13414;44.534;18.700;2024-02-16T03:00:05;70.55;;;41.28;;
25511;SDS011;13414;44.534;18.700;2024-02-16T03:02:36;69.35;;;40.70;;
25511;SDS011;13414;44.534;18.700;2024-02-16T03:05:05;69.03;;;38.15;;
25511;SDS011;13414;44.534;18.700;2024-02-16T03:07:34;72.40;;;39.97;;
25511;SDS011;13414;44.534;18.700;2024-02-16T03:10:01;64.90;;;36.42;;
25511;SDS011;13414;44.534;18.700;2024-02-16T03:12:29;66.95;;;38.75;;
25511;SDS011;13414;44.534;18.700;2024-02-16T03:15:00;73.57;;;41.30;;
25511;SDS011;13414;44.534;18.700;2024-02-16T03:17:30;73.20;;;44.35;;
25511;SDS011;13414;44.534;18.700;2024-02-16T03:19:57;61.50;;;35.85;;
25511;SDS011;13414;44.534;18.700;2024-02-16T03:22:26;59.20;;;33.88;;
25511;SDS011;13414;44.534;18.700;2024-02-16T03:24:53;59.42;;;34.35;;
25511;SDS011;13414;44.534;18.700;2024-02-16T03:27:21;63.78;;;35.90;;
25511;SDS011;13414;44.534;18.700;2024-02-16T03:29:49;66.13;;;38.20;;
25511;SDS011;13414;44.534;18.700;2024-02-16T03:32:18;65.57;;;39.42;;
25511;SDS011;13414;44.534;18.700;2024-02-16T03:34:47;64.85;;;36.05;;
25511;SDS011;13414;44.534;18.700;2024-02-16T03:37:15;65.35;;;37.75;;
25511;SDS011;13414;44.534;18.700;2024-02-16T03:39:42;66.15;;;38.58;;
25511;SDS011;13414;44.534;18.700;2024-02-16T03:42:10;65.50;;;38.92;;
25511;SDS011;13414;44.534;18.700;2024-02-16T03:44:37;66.55;;;39.10;;
25511;SDS011;13414;44.534;18.700;2024-02-16T03:47:06;64.18;;;37.67;;
25511;SDS011;13414;44.534;18.700;2024-02-16T03:49:35;64.00;;;38.72;;
25511;SDS011;13414;44.534;18.700;2024-02-16T03:52:03;61.05;;;37.58;;
25511;SDS011;13414;44.534;18.700;2024-02-16T03:54:30;58.72;;;36.78;;
25511;SDS011;13414;44.534;18.700;2024-02-16T03:56:58;58.35;;;33.95;;
25511;SDS011;13414;44.534;18.700;2024-02-16T03:59:26;61.05;;;34.03;;
25511;SDS011;13414;44.534;18.700;2024-02-16T04:01:54;50.63;;;30.65;;
25511;SDS011;13414;44.534;18.700;2024-02-16T04:04:22;54.38;;;33.72;;
25511;SDS011;13414;44.534;18.700;2024-02-16T04:06:51;62.78;;;37.38;;
25511;SDS011;13414;44.534;18.700;2024-02-16T04:09:18;63.03;;;35.35;;
25511;SDS011;13414;44.534;18.700;2024-02-16T04:11:46;67.53;;;38.75;;
25511;SDS011;13414;44.534;18.700;2024-02-16T04:14:14;60.17;;;35.88;;
25511;SDS011;13414;44.534;18.700;2024-02-16T04:16:42;69.15;;;40.08;;
25511;SDS011;13414;44.534;18.700;2024-02-16T04:19:10;69.75;;;40.08;;
25511;SDS011;13414;44.534;18.700;2024-02-16T04:21:37;89.13;;;50.50;;
25511;SDS011;13414;44.534;18.700;2024-02-16T04:24:07;68.38;;;40.42;;
25511;SDS011;13414;44.534;18.700;2024-02-16T04:26:35;76.50;;;42.83;;
25511;SDS011;13414;44.534;18.700;2024-02-16T04:29:03;69.80;;;39.78;;
25511;SDS011;13414;44.534;18.700;2024-02-16T04:31:31;72.93;;;41.60;;
25511;SDS011;13414;44.534;18.700;2024-02-16T04:33:59;71.95;;;41.58;;
25511;SDS011;13414;44.534;18.700;2024-02-16T04:36:27;72.68;;;44.47;;
25511;SDS011;13414;44.534;18.700;2024-02-16T04:38:55;68.88;;;42.75;;
25511;SDS011;13414;44.534;18.700;2024-02-16T04:41:25;50.45;;;29.45;;
25511;SDS011;13414;44.534;18.700;2024-02-16T04:43:55;49.97;;;29.92;;
25511;SDS011;13414;44.534;18.700;2024-02-16T04:46:23;54.20;;;33.42;;
25511;SDS011;13414;44.534;18.700;2024-02-16T04:48:52;77.72;;;42.28;;
25511;SDS011;13414;44.534;18.700;2024-02-16T04:51:22;86.75;;;46.72;;
25511;SDS011;13414;44.534;18.700;2024-02-16T04:54:06;78.53;;;45.05;;
25511;SDS011;13414;44.534;18.700;2024-02-16T04:56:38;81.90;;;46.60;;
25511;SDS011;13414;44.534;18.700;2024-02-16T04:59:12;76.32;;;44.88;;
25511;SDS011;13414;44.534;18.700;2024-02-16T05:01:42;80.57;;;45.42;;
25511;SDS011;13414;44.534;18.700;2024-02-16T05:04:10;89.53;;;49.28;;
25511;SDS011;13414;44.534;18.700;2024-02-16T05:06:41;83.78;;;48.45;;
25511;SDS011;13414;44.534;18.700;2024-02-16T05:09:25;68.05;;;40.58;;
25511;SDS011;13414;44.534;18.700;2024-02-16T05:12:00;60.72;;;36.92;;
25511;SDS011;13414;44.534;18.700;2024-02-16T05:14:28;49.00;;;30.40;;
25511;SDS011;13414;44.534;18.700;2024-02-16T05:16:58;50.05;;;31.08;;
25511;SDS011;13414;44.534;18.700;2024-02-16T05:19:31;48.15;;;29.25;;
25511;SDS011;13414;44.534;18.700;2024-02-16T05:22:01;60.80;;;35.83;;
25511;SDS011;13414;44.534;18.700;2024-02-16T05:24:29;83.18;;;49.95;;
25511;SDS011;13414;44.534;18.700;2024-02-16T05:27:06;75.03;;;43.00;;
25511;SDS011;13414;44.534;18.700;2024-02-16T05:29:36;78.05;;;44.75;;
25511;SDS011;13414;44.534;18.700;2024-02-16T05:32:05;60.90;;;38.25;;
25511;SDS011;13414;44.534;18.700;2024-02-16T05:34:33;74.65;;;45.78;;
25511;SDS011;13414;44.534;18.700;2024-02-16T05:37:06;88.32;;;47.13;;
25511;SDS011;13414;44.534;18.700;2024-02-16T05:39:35;77.85;;;44.60;;
25511;SDS011;13414;44.534;18.700;2024-02-16T05:42:23;78.45;;;44.47;;
25511;SDS011;13414;44.534;18.700;2024-02-16T05:45:02;84.65;;;50.65;;
25511;SDS011;13414;44.534;18.700;2024-02-16T05:47:32;82.25;;;47.83;;
25511;SDS011;13414;44.534;18.700;2024-02-16T05:50:01;74.03;;;47.35;;
25511;SDS011;13414;44.534;18.700;2024-02-16T05:52:28;75.72;;;46.65;;
25511;SDS011;13414;44.534;18.700;2024-02-16T05:54:57;62.67;;;40.22;;
25511;SDS011;13414;44.534;18.700;2024-02-16T05:57:29;68.88;;;41.83;;
25511;SDS011;13414;44.534;18.700;2024-02-16T05:59:56;76.25;;;45.33;;
25511;SDS011;13414;44.534;18.700;2024-02-16T06:02:30;67.25;;;40.88;;
25511;SDS011;13414;44.534;18.700;2024-02-16T06:04:58;78.32;;;45.78;;
25511;SDS011;13414;44.534;18.700;2024-02-16T06:07:30;83.60;;;48.95;;
25511;SDS011;13414;44.534;18.700;2024-02-16T06:09:58;89.70;;;51.38;;
25511;SDS011;13414;44.534;18.700;2024-02-16T06:12:33;83.97;;;50.42;;
25511;SDS011;13414;44.534;18.700;2024-02-16T06:15:04;93.72;;;55.95;;
25511;SDS011;13414;44.534;18.700;2024-02-16T06:17:34;103.40;;;59.17;;
25511;SDS011;13414;44.534;18.700;2024-02-16T06:20:14;117.22;;;66.43;;
25511;SDS011;13414;44.534;18.700;2024-02-16T06:22:44;139.38;;;76.80;;
25511;SDS011;13414;44.534;18.700;2024-02-16T06:25:12;111.22;;;64.20;;
25511;SDS011;13414;44.534;18.700;2024-02-16T06:27:41;103.00;;;59.63;;
25511;SDS011;13414;44.534;18.700;2024-02-16T06:30:09;105.75;;;60.67;;
25511;SDS011;13414;44.534;18.700;2024-02-16T06:32:39;116.97;;;65.82;;
25511;SDS011;13414;44.534;18.700;2024-02-16T06:35:07;136.60;;;74.72;;
25511;SDS011;13414;44.534;18.700;2024-02-16T06:37:40;119.40;;;71.72;;
25511;SDS011;13414;44.534;18.700;2024-02-16T06:40:08;127.28;;;72.10;;
25511;SDS011;13414;44.534;18.700;2024-02-16T06:42:36;118.72;;;70.28;;
25511;SDS011;13414;44.534;18.700;2024-02-16T06:45:07;137.88;;;79.60;;
25511;SDS011;13414;44.534;18.700;2024-02-16T06:47:35;139.18;;;79.13;;
25511;SDS011;13414;44.534;18.700;2024-02-16T06:50:08;119.13;;;71.50;;
25511;SDS011;13414;44.534;18.700;2024-02-16T06:52:36;133.50;;;73.97;;
25511;SDS011;13414;44.534;18.700;2024-02-16T06:55:04;118.75;;;69.72;;
25511;SDS011;13414;44.534;18.700;2024-02-16T06:57:37;105.97;;;64.13;;
25511;SDS011;13414;44.534;18.700;2024-02-16T07:00:10;104.38;;;54.40;;
25511;SDS011;13414;44.534;18.700;2024-02-16T07:02:38;103.63;;;57.53;;
25511;SDS011;13414;44.534;18.700;2024-02-16T07:05:08;94.03;;;53.47;;
25511;SDS011;13414;44.534;18.700;2024-02-16T07:10:35;91.95;;;52.17;;
25511;SDS011;13414;44.534;18.700;2024-02-16T07:13:12;110.20;;;61.97;;
25511;SDS011;13414;44.534;18.700;2024-02-16T07:19:22;110.28;;;61.63;;
25511;SDS011;13414;44.534;18.700;2024-02-16T07:25:09;120.50;;;66.95;;
25511;SDS011;13414;44.534;18.700;2024-02-16T07:28:40;120.10;;;66.90;;
25511;SDS011;13414;44.534;18.700;2024-02-16T07:32:03;110.20;;;61.00;;
25511;SDS011;13414;44.534;18.700;2024-02-16T07:35:33;115.00;;;65.10;;
25511;SDS011;13414;44.534;18.700;2024-02-16T07:39:03;124.10;;;70.43;;
25511;SDS011;13414;44.534;18.700;2024-02-16T07:42:27;121.95;;;65.45;;
25511;SDS011;13414;44.534;18.700;2024-02-16T07:45:29;116.20;;;65.03;;
25511;SDS011;13414;44.534;18.700;2024-02-16T07:48:22;118.93;;;67.45;;
25511;SDS011;13414;44.534;18.700;2024-02-16T07:51:03;109.90;;;60.83;;
25511;SDS011;13414;44.534;18.700;2024-02-16T07:54:12;101.45;;;55.75;;
25511;SDS011;13414;44.534;18.700;2024-02-16T08:00:09;86.32;;;50.70;;
25511;SDS011;13414;44.534;18.700;2024-02-16T08:03:14;82.70;;;48.15;;
25511;SDS011;13414;44.534;18.700;2024-02-16T08:06:38;82.72;;;48.95;;
25511;SDS011;13414;44.534;18.700;2024-02-16T08:09:32;88.38;;;49.58;;
25511;SDS011;13414;44.534;18.700;2024-02-16T08:12:14;77.35;;;46.92;;
25511;SDS011;13414;44.534;18.700;2024-02-16T08:14:46;92.78;;;50.42;;
25511;SDS011;13414;44.534;18.700;2024-02-16T08:17:35;85.90;;;50.97;;
25511;SDS011;13414;44.534;18.700;2024-02-16T08:20:30;89.88;;;55.78;;
25511;SDS011;13414;44.534;18.700;2024-02-16T08:26:36;81.22;;;48.92;;
25511;SDS011;13414;44.534;18.700;2024-02-16T08:29:13;86.78;;;50.65;;
25511;SDS011;13414;44.534;18.700;2024-02-16T08:32:08;87.53;;;50.50;;
25511;SDS011;13414;44.534;18.700;2024-02-16T08:34:48;88.65;;;53.78;;
25511;SDS011;13414;44.534;18.700;2024-02-16T08:37:39;87.53;;;54.08;;
25511;SDS011;13414;44.534;18.700;2024-02-16T08:40:41;96.60;;;58.40;;
25511;SDS011;13414;44.534;18.700;2024-02-16T08:43:37;98.90;;;59.95;;
25511;SDS011;13414;44.534;18.700;2024-02-16T08:46:54;100.05;;;60.03;;
25511;SDS011;13414;44.534;18.700;2024-02-16T08:50:52;99.40;;;56.90;;
25511;SDS011;13414;44.534;18.700;2024-02-16T08:53:27;91.10;;;55.05;;
25511;SDS011;13414;44.534;18.700;2024-02-16T08:56:55;94.15;;;53.63;;
25511;SDS011;13414;44.534;18.700;2024-02-16T09:00:04;92.40;;;52.25;;
25511;SDS011;13414;44.534;18.700;2024-02-16T09:03:20;97.97;;;55.67;;
25511;SDS011;13414;44.534;18.700;2024-02-16T09:06:14;85.95;;;52.75;;
25511;SDS011;13414;44.534;18.700;2024-02-16T09:09:21;86.72;;;49.80;;
25511;SDS011;13414;44.534;18.700;2024-02-16T09:15:34;49.63;;;31.92;;
25511;SDS011;13414;44.534;18.700;2024-02-16T09:18:42;52.47;;;31.83;;
25511;SDS011;13414;44.534;18.700;2024-02-16T09:21:41;53.88;;;31.60;;
25511;SDS011;13414;44.534;18.700;2024-02-16T09:25:08;53.83;;;32.10;;
25511;SDS011;13414;44.534;18.700;2024-02-16T09:34:04;54.33;;;30.90;;
25511;SDS011;13414;44.534;18.700;2024-02-16T09:40:23;54.60;;;30.02;;
25511;SDS011;13414;44.534;18.700;2024-02-16T09:43:27;48.97;;;29.98;;
25511;SDS011;13414;44.534;18.700;2024-02-16T09:46:26;48.25;;;29.08;;
25511;SDS011;13414;44.534;18.700;2024-02-16T09:48:58;45.90;;;27.77;;
25511;SDS011;13414;44.534;18.700;2024-02-16T09:56:54;52.42;;;31.83;;
25511;SDS011;13414;44.534;18.700;2024-02-16T09:59:04;56.78;;;33.72;;
25511;SDS011;13414;44.534;18.700;2024-02-16T10:05:13;53.40;;;32.00;;
25511;SDS011;13414;44.534;18.700;2024-02-16T10:19:54;52.33;;;32.15;;
25511;SDS011;13414;44.534;18.700;2024-02-16T10:22:44;47.45;;;31.35;;
25511;SDS011;13414;44.534;18.700;2024-02-16T10:25:47;48.55;;;27.15;;
25511;SDS011;13414;44.534;18.700;2024-02-16T10:28:57;36.72;;;21.42;;
25511;SDS011;13414;44.534;18.700;2024-02-16T10:32:19;31.52;;;20.27;;
25511;SDS011;13414;44.534;18.700;2024-02-16T10:35:00;31.25;;;19.50;;
25511;SDS011;13414;44.534;18.700;2024-02-16T10:37:56;31.92;;;20.58;;
25511;SDS011;13414;44.534;18.700;2024-02-16T10:40:28;25.95;;;17.67;;
25511;SDS011;13414;44.534;18.700;2024-02-16T10:43:12;17.60;;;11.35;;
25511;SDS011;13414;44.534;18.700;2024-02-16T10:45:41;17.48;;;11.52;;
25511;SDS011;13414;44.534;18.700;2024-02-16T10:48:17;37.53;;;22.35;;
25511;SDS011;13414;44.534;18.700;2024-02-16T10:51:18;55.08;;;34.45;;
25511;SDS011;13414;44.534;18.700;2024-02-16T10:54:05;17.95;;;11.65;;
25511;SDS011;13414;44.534;18.700;2024-02-16T10:56:34;20.77;;;12.35;;
25511;SDS011;13414;44.534;18.700;2024-02-16T10:59:02;7.47;;;4.47;;
25511;SDS011;13414;44.534;18.700;2024-02-16T11:01:36;8.25;;;4.50;;
25511;SDS011;13414;44.534;18.700;2024-02-16T11:04:05;5.43;;;2.90;;
25511;SDS011;13414;44.534;18.700;2024-02-16T11:09:28;6.70;;;3.38;;
25511;SDS011;13414;44.534;18.700;2024-02-16T11:11:58;6.47;;;3.67;;
25511;SDS011;13414;44.534;18.700;2024-02-16T11:14:34;8.93;;;4.13;;
25511;SDS011;13414;44.534;18.700;2024-02-16T11:17:02;11.10;;;5.60;;
25511;SDS011;13414;44.534;18.700;2024-02-16T11:19:35;7.43;;;4.32;;
25511;SDS011;13414;44.534;18.700;2024-02-16T11:22:04;8.27;;;3.50;;
25511;SDS011;13414;44.534;18.700;2024-02-16T11:24:34;8.20;;;3.65;;
25511;SDS011;13414;44.534;18.700;2024-02-16T11:27:02;5.32;;;2.58;;
25511;SDS011;13414;44.534;18.700;2024-02-16T11:29:31;6.13;;;2.20;;
25511;SDS011;13414;44.534;18.700;2024-02-16T11:31:59;5.75;;;3.40;;
25511;SDS011;13414;44.534;18.700;2024-02-16T11:34:27;6.18;;;3.28;;
25511;SDS011;13414;44.534;18.700;2024-02-16T11:36:55;7.05;;;2.80;;
25511;SDS011;13414;44.534;18.700;2024-02-16T11:39:25;9.23;;;2.88;;
25511;SDS011;13414;44.534;18.700;2024-02-16T11:41:59;4.72;;;2.78;;
25511;SDS011;13414;44.534;18.700;2024-02-16T11:44:28;8.13;;;3.90;;
25511;SDS011;13414;44.534;18.700;2024-02-16T11:46:57;7.70;;;2.72;;
25511;SDS011;13414;44.534;18.700;2024-02-16T11:49:25;6.90;;;3.17;;
25511;SDS011;13414;44.534;18.700;2024-02-16T11:51:52;7.93;;;3.55;;
25511;SDS011;13414;44.534;18.700;2024-02-16T11:54:20;15.90;;;4.28;;
25511;SDS011;13414;44.534;18.700;2024-02-16T11:56:49;9.05;;;3.50;;
25511;SDS011;13414;44.534;18.700;2024-02-16T11:59:18;4.55;;;2.38;;
25511;SDS011;13414;44.534;18.700;2024-02-16T12:01:50;5.85;;;2.88;;
25511;SDS011;13414;44.534;18.700;2024-02-16T12:04:22;3.78;;;1.90;;
25511;SDS011;13414;44.534;18.700;2024-02-16T12:06:50;7.40;;;3.28;;
25511;SDS011;13414;44.534;18.700;2024-02-16T12:09:19;7.20;;;2.92;;
25511;SDS011;13414;44.534;18.700;2024-02-16T12:11:47;3.30;;;1.90;;
25511;SDS011;13414;44.534;18.700;2024-02-16T12:14:17;3.13;;;1.77;;
25511;SDS011;13414;44.534;18.700;2024-02-16T12:16:48;5.60;;;2.30;;
25511;SDS011;13414;44.534;18.700;2024-02-16T12:19:16;5.13;;;2.83;;
25511;SDS011;13414;44.534;18.700;2024-02-16T12:21:48;3.50;;;1.80;;
25511;SDS011;13414;44.534;18.700;2024-02-16T12:24:16;3.83;;;1.92;;
25511;SDS011;13414;44.534;18.700;2024-02-16T12:26:44;5.30;;;2.15;;
25511;SDS011;13414;44.534;18.700;2024-02-16T12:29:13;7.90;;;3.42;;
25511;SDS011;13414;44.534;18.700;2024-02-16T12:31:42;8.35;;;3.35;;
25511;SDS011;13414;44.534;18.700;2024-02-16T12:34:10;4.63;;;2.80;;
25511;SDS011;13414;44.534;18.700;2024-02-16T12:36:39;5.88;;;2.88;;
25511;SDS011;13414;44.534;18.700;2024-02-16T12:39:07;9.57;;;2.80;;
25511;SDS011;13414;44.534;18.700;2024-02-16T12:41:39;4.70;;;2.05;;
25511;SDS011;13414;44.534;18.700;2024-02-16T12:44:08;7.25;;;3.60;;
25511;SDS011;13414;44.534;18.700;2024-02-16T12:46:47;8.98;;;4.72;;
25511;SDS011;13414;44.534;18.700;2024-02-16T12:49:15;4.18;;;2.42;;
25511;SDS011;13414;44.534;18.700;2024-02-16T12:51:42;3.50;;;1.52;;
25511;SDS011;13414;44.534;18.700;2024-02-16T12:54:09;4.95;;;2.85;;
25511;SDS011;13414;44.534;18.700;2024-02-16T12:56:39;5.28;;;2.53;;
25511;SDS011;13414;44.534;18.700;2024-02-16T12:59:07;6.82;;;3.67;;
25511;SDS011;13414;44.534;18.700;2024-02-16T13:01:34;4.32;;;2.55;;
25511;SDS011;13414;44.534;18.700;2024-02-16T13:04:03;3.50;;;1.83;;
25511;SDS011;13414;44.534;18.700;2024-02-16T13:06:31;4.20;;;2.33;;
25511;SDS011;13414;44.534;18.700;2024-02-16T13:08:58;4.35;;;2.05;;
25511;SDS011;13414;44.534;18.700;2024-02-16T13:11:26;5.07;;;1.80;;
25511;SDS011;13414;44.534;18.700;2024-02-16T13:13:54;5.32;;;3.67;;
25511;SDS011;13414;44.534;18.700;2024-02-16T13:16:21;4.70;;;2.85;;
25511;SDS011;13414;44.534;18.700;2024-02-16T13:18:49;3.67;;;1.95;;
25511;SDS011;13414;44.534;18.700;2024-02-16T13:21:29;3.65;;;1.95;;
25511;SDS011;13414;44.534;18.700;2024-02-16T13:27:37;4.85;;;2.33;;
25511;SDS011;13414;44.534;18.700;2024-02-16T13:30:29;3.47;;;2.10;;
25511;SDS011;13414;44.534;18.700;2024-02-16T13:32:57;4.65;;;2.58;;
25511;SDS011;13414;44.534;18.700;2024-02-16T13:35:24;6.40;;;2.40;;
25511;SDS011;13414;44.534;18.700;2024-02-16T13:37:53;12.38;;;6.00;;
25511;SDS011;13414;44.534;18.700;2024-02-16T13:40:20;9.63;;;4.03;;
25511;SDS011;13414;44.534;18.700;2024-02-16T13:42:49;4.18;;;2.53;;
25511;SDS011;13414;44.534;18.700;2024-02-16T13:45:17;4.07;;;2.33;;
25511;SDS011;13414;44.534;18.700;2024-02-16T13:47:44;5.18;;;2.60;;
25511;SDS011;13414;44.534;18.700;2024-02-16T13:50:12;8.35;;;2.88;;
25511;SDS011;13414;44.534;18.700;2024-02-16T13:52:41;5.47;;;3.30;;
25511;SDS011;13414;44.534;18.700;2024-02-16T13:55:10;4.75;;;3.30;;
25511;SDS011;13414;44.534;18.700;2024-02-16T13:57:38;5.57;;;3.30;;
25511;SDS011;13414;44.534;18.700;2024-02-16T14:00:07;4.45;;;2.10;;
25511;SDS011;13414;44.534;18.700;2024-02-16T14:02:38;5.38;;;3.17;;
25511;SDS011;13414;44.534;18.700;2024-02-16T14:05:06;6.57;;;3.33;;
25511;SDS011;13414;44.534;18.700;2024-02-16T14:07:34;7.60;;;3.30;;
25511;SDS011;13414;44.534;18.700;2024-02-16T14:10:03;13.27;;;5.28;;
25511;SDS011;13414;44.534;18.700;2024-02-16T14:12:34;5.22;;;3.05;;
25511;SDS011;13414;44.534;18.700;2024-02-16T14:15:02;5.07;;;2.50;;
25511;SDS011;13414;44.534;18.700;2024-02-16T14:17:33;5.03;;;2.50;;
25511;SDS011;13414;44.534;18.700;2024-02-16T14:20:01;9.82;;;5.38;;
25511;SDS011;13414;44.534;18.700;2024-02-16T14:22:33;10.85;;;5.32;;
25511;SDS011;13414;44.534;18.700;2024-02-16T14:25:06;6.25;;;2.92;;
25511;SDS011;13414;44.534;18.700;2024-02-16T14:27:38;6.20;;;3.65;;
25511;SDS011;13414;44.534;18.700;2024-02-16T14:30:13;8.75;;;4.60;;
25511;SDS011;13414;44.534;18.700;2024-02-16T14:32:45;7.05;;;3.65;;
25511;SDS011;13414;44.534;18.700;2024-02-16T14:35:16;9.52;;;5.13;;
25511;SDS011;13414;44.534;18.700;2024-02-16T14:38:20;15.30;;;9.00;;
25511;SDS011;13414;44.534;18.700;2024-02-16T14:41:20;43.85;;;27.02;;
25511;SDS011;13414;44.534;18.700;2024-02-16T14:44:25;19.08;;;10.93;;
25511;SDS011;13414;44.534;18.700;2024-02-16T14:46:55;11.25;;;5.93;;
25511;SDS011;13414;44.534;18.700;2024-02-16T14:49:39;10.48;;;6.22;;
25511;SDS011;13414;44.534;18.700;2024-02-16T14:52:26;11.15;;;5.50;;
25511;SDS011;13414;44.534;18.700;2024-02-16T14:54:59;7.97;;;4.70;;
25511;SDS011;13414;44.534;18.700;2024-02-16T14:57:27;10.77;;;6.05;;
25511;SDS011;13414;44.534;18.700;2024-02-16T14:59:55;10.23;;;6.10;;
25511;SDS011;13414;44.534;18.700;2024-02-16T15:02:23;15.23;;;9.40;;
25511;SDS011;13414;44.534;18.700;2024-02-16T15:04:51;14.95;;;8.80;;
25511;SDS011;13414;44.534;18.700;2024-02-16T15:07:19;11.13;;;7.00;;
25511;SDS011;13414;44.534;18.700;2024-02-16T15:09:47;15.82;;;9.57;;
25511;SDS011;13414;44.534;18.700;2024-02-16T15:12:16;18.30;;;8.60;;
25511;SDS011;13414;44.534;18.700;2024-02-16T15:14:45;23.02;;;11.45;;
25511;SDS011;13414;44.534;18.700;2024-02-16T15:17:15;15.73;;;9.68;;
25511;SDS011;13414;44.534;18.700;2024-02-16T15:19:46;22.92;;;12.45;;
25511;SDS011;13414;44.534;18.700;2024-02-16T15:22:14;24.55;;;15.27;;
25511;SDS011;13414;44.534;18.700;2024-02-16T15:24:42;27.30;;;14.15;;
25511;SDS011;13414;44.534;18.700;2024-02-16T15:27:18;22.23;;;13.38;;
25511;SDS011;13414;44.534;18.700;2024-02-16T15:29:49;22.95;;;12.32;;
25511;SDS011;13414;44.534;18.700;2024-02-16T15:32:18;17.73;;;10.07;;
25511;SDS011;13414;44.534;18.700;2024-02-16T15:34:46;17.50;;;11.50;;
25511;SDS011;13414;44.534;18.700;2024-02-16T15:37:18;14.93;;;9.57;;
25511;SDS011;13414;44.534;18.700;2024-02-16T15:39:46;17.33;;;9.13;;
25511;SDS011;13414;44.534;18.700;2024-02-16T15:42:18;17.23;;;9.35;;
25511;SDS011;13414;44.534;18.700;2024-02-16T15:44:46;24.45;;;13.10;;
25511;SDS011;13414;44.534;18.700;2024-02-16T15:47:14;22.05;;;12.68;;
25511;SDS011;13414;44.534;18.700;2024-02-16T15:49:43;25.35;;;15.70;;
25511;SDS011;13414;44.534;18.700;2024-02-16T15:52:11;30.35;;;19.15;;
25511;SDS011;13414;44.534;18.700;2024-02-16T15:54:39;35.58;;;22.08;;